Anchorage, Utah
Current Conditions -  °F | °C
As of 12:58 PM on Monday 24 Nov 2014 (Local Time) from KHIF Reporting Station
Scattered Clouds Scattered Clouds  
Wind Chill: 35°   Ceiling: Unl
Heat Index: 39°   Visibility: 10mi
Dew Point: 20°   Wind: 6mph
Humidity: 46%   Direction: 340°NNW
Pressure: 30.34"   Gusts: NA
Location:  41.123°N, 112.063°W
Report Text: KHIF 241958Z AUTO 34005KT 10SM SCT043 04/M07 A3034 RMK AO2 SLP281 T00391069
Loading
Personal Weather Stations






























Interactive Weather Map New forecast layout! Learn more

10-Day Weather Forecast

Advertisements
Track Severe Weather on mobile